sensor_id;sensor_type;location;lat;lon;timestamp;temperature;humidity
13944;DHT22;7044;53.286;8.534;2023-05-19T00:00:05;8.80;99.90
13944;DHT22;7044;53.286;8.534;2023-05-19T00:02:32;8.90;99.90
13944;DHT22;7044;53.286;8.534;2023-05-19T00:05:00;8.90;99.90
13944;DHT22;7044;53.286;8.534;2023-05-19T00:07:30;9.00;99.90
13944;DHT22;7044;53.286;8.534;2023-05-19T00:09:57;8.80;99.90
13944;DHT22;7044;53.286;8.534;2023-05-19T00:12:24;8.70;99.90
13944;DHT22;7044;53.286;8.534;2023-05-19T00:14:52;8.60;99.90
13944;DHT22;7044;53.286;8.534;2023-05-19T00:17:19;8.40;99.90
13944;DHT22;7044;53.286;8.534;2023-05-19T00:19:46;8.30;99.90
13944;DHT22;7044;53.286;8.534;2023-05-19T00:22:13;8.10;99.90
13944;DHT22;7044;53.286;8.534;2023-05-19T00:24:41;8.00;99.90
13944;DHT22;7044;53.286;8.534;2023-05-19T00:27:08;7.80;99.90
13944;DHT22;7044;53.286;8.534;2023-05-19T00:29:35;7.70;99.90
13944;DHT22;7044;53.286;8.534;2023-05-19T00:32:02;7.60;99.90
13944;DHT22;7044;53.286;8.534;2023-05-19T00:34:29;7.50;99.90
13944;DHT22;7044;53.286;8.534;2023-05-19T00:36:56;7.50;99.90
13944;DHT22;7044;53.286;8.534;2023-05-19T00:39:22;7.50;99.90
13944;DHT22;7044;53.286;8.534;2023-05-19T00:41:50;7.60;99.90
13944;DHT22;7044;53.286;8.534;2023-05-19T00:44:17;7.60;99.90
13944;DHT22;7044;53.286;8.534;2023-05-19T00:46:44;7.50;99.90
13944;DHT22;7044;53.286;8.534;2023-05-19T00:49:11;7.40;99.90
13944;DHT22;7044;53.286;8.534;2023-05-19T00:51:37;7.30;99.90
13944;DHT22;7044;53.286;8.534;2023-05-19T00:54:05;7.30;99.90
13944;DHT22;7044;53.286;8.534;2023-05-19T00:56:32;7.20;99.90
13944;DHT22;7044;53.286;8.534;2023-05-19T00:59:00;7.20;99.90
13944;DHT22;7044;53.286;8.534;2023-05-19T01:01:27;7.20;99.90
13944;DHT22;7044;53.286;8.534;2023-05-19T01:03:57;7.10;99.90
13944;DHT22;7044;53.286;8.534;2023-05-19T01:06:24;7.20;99.90
13944;DHT22;7044;53.286;8.534;2023-05-19T01:08:53;7.30;99.90
13944;DHT22;7044;53.286;8.534;2023-05-19T01:11:20;7.30;99.90
13944;DHT22;7044;53.286;8.534;2023-05-19T01:13:47;7.30;99.90
13944;DHT22;7044;53.286;8.534;2023-05-19T01:16:21;7.30;99.90
13944;DHT22;7044;53.286;8.534;2023-05-19T01:18:55;7.30;99.90
13944;DHT22;7044;53.286;8.534;2023-05-19T01:24:55;7.60;99.90
13944;DHT22;7044;53.286;8.534;2023-05-19T01:27:42;7.80;99.90
13944;DHT22;7044;53.286;8.534;2023-05-19T01:30:26;7.80;99.90
13944;DHT22;7044;53.286;8.534;2023-05-19T01:32:57;7.80;99.90
13944;DHT22;7044;53.286;8.534;2023-05-19T01:35:25;7.70;99.90
13944;DHT22;7044;53.286;8.534;2023-05-19T01:37:54;7.60;99.90
13944;DHT22;7044;53.286;8.534;2023-05-19T01:40:22;7.60;99.90
13944;DHT22;7044;53.286;8.534;2023-05-19T01:42:50;7.70;99.90
13944;DHT22;7044;53.286;8.534;2023-05-19T01:45:19;7.70;99.90
13944;DHT22;7044;53.286;8.534;2023-05-19T01:47:49;7.60;99.90
13944;DHT22;7044;53.286;8.534;2023-05-19T01:50:16;7.50;99.90
13944;DHT22;7044;53.286;8.534;2023-05-19T01:52:43;7.50;99.90
13944;DHT22;7044;53.286;8.534;2023-05-19T01:55:10;7.40;99.90
13944;DHT22;7044;53.286;8.534;2023-05-19T01:57:43;7.30;99.90
13944;DHT22;7044;53.286;8.534;2023-05-19T02:00:17;7.10;99.90
13944;DHT22;7044;53.286;8.534;2023-05-19T02:02:55;7.00;99.90
13944;DHT22;7044;53.286;8.534;2023-05-19T02:05:30;6.70;99.90
13944;DHT22;7044;53.286;8.534;2023-05-19T02:08:06;6.70;99.90
13944;DHT22;7044;53.286;8.534;2023-05-19T02:10:36;6.60;99.90
13944;DHT22;7044;53.286;8.534;2023-05-19T02:13:06;6.60;99.90
13944;DHT22;7044;53.286;8.534;2023-05-19T02:15:38;6.80;99.90
13944;DHT22;7044;53.286;8.534;2023-05-19T02:18:09;6.80;99.90
13944;DHT22;7044;53.286;8.534;2023-05-19T02:20:36;6.80;99.90
13944;DHT22;7044;53.286;8.534;2023-05-19T02:23:03;6.80;99.90
13944;DHT22;7044;53.286;8.534;2023-05-19T02:25:29;6.90;99.90
13944;DHT22;7044;53.286;8.534;2023-05-19T02:27:57;7.10;99.90
13944;DHT22;7044;53.286;8.534;2023-05-19T02:30:24;7.00;99.90
13944;DHT22;7044;53.286;8.534;2023-05-19T02:32:50;7.00;99.90
13944;DHT22;7044;53.286;8.534;2023-05-19T02:35:20;7.00;99.90
13944;DHT22;7044;53.286;8.534;2023-05-19T02:37:46;7.00;99.90
13944;DHT22;7044;53.286;8.534;2023-05-19T02:40:13;7.10;99.90
13944;DHT22;7044;53.286;8.534;2023-05-19T02:42:40;7.20;99.90
13944;DHT22;7044;53.286;8.534;2023-05-19T02:45:07;7.10;99.90
13944;DHT22;7044;53.286;8.534;2023-05-19T02:47:34;6.90;99.90
13944;DHT22;7044;53.286;8.534;2023-05-19T02:50:03;6.80;99.90
13944;DHT22;7044;53.286;8.534;2023-05-19T02:52:31;6.80;99.90
13944;DHT22;7044;53.286;8.534;2023-05-19T02:54:58;6.80;99.90
13944;DHT22;7044;53.286;8.534;2023-05-19T02:57:24;6.90;99.90
13944;DHT22;7044;53.286;8.534;2023-05-19T02:59:52;7.00;99.90
13944;DHT22;7044;53.286;8.534;2023-05-19T03:02:18;6.80;99.90
13944;DHT22;7044;53.286;8.534;2023-05-19T03:04:45;6.90;99.90
13944;DHT22;7044;53.286;8.534;2023-05-19T03:07:12;6.80;99.90
13944;DHT22;7044;53.286;8.534;2023-05-19T03:09:41;6.60;99.90
13944;DHT22;7044;53.286;8.534;2023-05-19T03:12:08;6.50;99.90
13944;DHT22;7044;53.286;8.534;2023-05-19T03:14:36;6.30;99.90
13944;DHT22;7044;53.286;8.534;2023-05-19T03:17:03;6.20;99.90
13944;DHT22;7044;53.286;8.534;2023-05-19T03:19:31;6.20;99.90
13944;DHT22;7044;53.286;8.534;2023-05-19T03:21:58;6.20;99.90
13944;DHT22;7044;53.286;8.534;2023-05-19T03:24:25;6.20;99.90
13944;DHT22;7044;53.286;8.534;2023-05-19T03:26:53;6.20;99.90
13944;DHT22;7044;53.286;8.534;2023-05-19T03:29:20;6.30;99.90
13944;DHT22;7044;53.286;8.534;2023-05-19T03:31:47;6.40;99.90
13944;DHT22;7044;53.286;8.534;2023-05-19T03:34:13;6.50;99.90
13944;DHT22;7044;53.286;8.534;2023-05-19T03:36:40;6.70;99.90
13944;DHT22;7044;53.286;8.534;2023-05-19T03:39:07;6.80;99.90
13944;DHT22;7044;53.286;8.534;2023-05-19T03:41:35;6.90;99.90
13944;DHT22;7044;53.286;8.534;2023-05-19T03:44:04;6.70;99.90
13944;DHT22;7044;53.286;8.534;2023-05-19T03:46:30;6.60;99.90
13944;DHT22;7044;53.286;8.534;2023-05-19T03:48:57;6.50;99.90
13944;DHT22;7044;53.286;8.534;2023-05-19T03:51:24;6.30;99.90
13944;DHT22;7044;53.286;8.534;2023-05-19T03:53:53;6.20;99.90
13944;DHT22;7044;53.286;8.534;2023-05-19T03:56:20;6.00;99.90
13944;DHT22;7044;53.286;8.534;2023-05-19T03:58:49;6.20;99.90
13944;DHT22;7044;53.286;8.534;2023-05-19T04:01:17;6.20;99.90
13944;DHT22;7044;53.286;8.534;2023-05-19T04:03:44;6.20;99.90
13944;DHT22;7044;53.286;8.534;2023-05-19T04:06:11;6.10;99.90
13944;DHT22;7044;53.286;8.534;2023-05-19T04:08:38;6.10;99.90
13944;DHT22;7044;53.286;8.534;2023-05-19T04:11:05;6.00;99.90
13944;DHT22;7044;53.286;8.534;2023-05-19T04:13:32;6.00;99.90
13944;DHT22;7044;53.286;8.534;2023-05-19T04:15:59;6.10;99.90
13944;DHT22;7044;53.286;8.534;2023-05-19T04:18:27;6.00;99.90
13944;DHT22;7044;53.286;8.534;2023-05-19T04:20:54;6.00;99.90
13944;DHT22;7044;53.286;8.534;2023-05-19T04:23:20;6.20;99.90
13944;DHT22;7044;53.286;8.534;2023-05-19T04:25:48;6.30;99.90
13944;DHT22;7044;53.286;8.534;2023-05-19T04:28:15;6.20;99.90
13944;DHT22;7044;53.286;8.534;2023-05-19T04:30:42;6.30;99.90
13944;DHT22;7044;53.286;8.534;2023-05-19T04:33:11;6.40;99.90
13944;DHT22;7044;53.286;8.534;2023-05-19T04:35:39;6.60;99.90
13944;DHT22;7044;53.286;8.534;2023-05-19T04:38:06;6.50;99.90
13944;DHT22;7044;53.286;8.534;2023-05-19T04:40:34;6.50;99.90
13944;DHT22;7044;53.286;8.534;2023-05-19T04:43:01;6.50;99.90
13944;DHT22;7044;53.286;8.534;2023-05-19T04:45:28;6.50;99.90
13944;DHT22;7044;53.286;8.534;2023-05-19T04:47:57;6.30;99.90
13944;DHT22;7044;53.286;8.534;2023-05-19T04:50:24;6.30;99.90
13944;DHT22;7044;53.286;8.534;2023-05-19T04:52:54;6.50;99.90
13944;DHT22;7044;53.286;8.534;2023-05-19T04:55:23;6.70;99.90
13944;DHT22;7044;53.286;8.534;2023-05-19T04:57:50;6.70;99.90
13944;DHT22;7044;53.286;8.534;2023-05-19T05:00:17;6.60;99.90
13944;DHT22;7044;53.286;8.534;2023-05-19T05:02:44;6.60;99.90
13944;DHT22;7044;53.286;8.534;2023-05-19T05:05:11;6.80;99.90
13944;DHT22;7044;53.286;8.534;2023-05-19T05:07:38;6.90;99.90
13944;DHT22;7044;53.286;8.534;2023-05-19T05:10:08;6.90;99.90
13944;DHT22;7044;53.286;8.534;2023-05-19T05:12:35;6.90;99.90
13944;DHT22;7044;53.286;8.534;2023-05-19T05:15:03;6.90;99.90
13944;DHT22;7044;53.286;8.534;2023-05-19T05:17:31;6.90;99.90
13944;DHT22;7044;53.286;8.534;2023-05-19T05:20:00;6.90;99.90
13944;DHT22;7044;53.286;8.534;2023-05-19T05:22:27;7.00;99.90
13944;DHT22;7044;53.286;8.534;2023-05-19T05:24:55;6.90;99.90
13944;DHT22;7044;53.286;8.534;2023-05-19T05:27:23;6.80;99.90
13944;DHT22;7044;53.286;8.534;2023-05-19T05:29:51;6.70;99.90
13944;DHT22;7044;53.286;8.534;2023-05-19T05:32:17;6.80;99.90
13944;DHT22;7044;53.286;8.534;2023-05-19T05:34:44;6.90;99.90
13944;DHT22;7044;53.286;8.534;2023-05-19T05:37:11;7.00;99.90
13944;DHT22;7044;53.286;8.534;2023-05-19T05:39:38;7.00;99.90
13944;DHT22;7044;53.286;8.534;2023-05-19T05:42:05;7.00;99.90
13944;DHT22;7044;53.286;8.534;2023-05-19T05:44:34;7.00;99.90
13944;DHT22;7044;53.286;8.534;2023-05-19T05:47:02;7.10;99.90
13944;DHT22;7044;53.286;8.534;2023-05-19T05:49:29;7.20;99.90
13944;DHT22;7044;53.286;8.534;2023-05-19T05:51:56;7.20;99.90
13944;DHT22;7044;53.286;8.534;2023-05-19T05:54:24;7.10;99.90
13944;DHT22;7044;53.286;8.534;2023-05-19T05:56:51;7.20;99.90
13944;DHT22;7044;53.286;8.534;2023-05-19T05:59:18;7.30;99.90
13944;DHT22;7044;53.286;8.534;2023-05-19T06:01:46;7.30;99.90
13944;DHT22;7044;53.286;8.534;2023-05-19T06:04:13;7.30;99.90
13944;DHT22;7044;53.286;8.534;2023-05-19T06:06:40;7.40;99.90
13944;DHT22;7044;53.286;8.534;2023-05-19T06:09:07;7.60;99.90
13944;DHT22;7044;53.286;8.534;2023-05-19T06:11:34;7.70;99.90
13944;DHT22;7044;53.286;8.534;2023-05-19T06:14:01;7.80;99.90
13944;DHT22;7044;53.286;8.534;2023-05-19T06:16:28;7.90;99.90
13944;DHT22;7044;53.286;8.534;2023-05-19T06:18:56;7.90;99.90
13944;DHT22;7044;53.286;8.534;2023-05-19T06:21:24;8.00;99.90
13944;DHT22;7044;53.286;8.534;2023-05-19T06:23:51;8.10;99.90
13944;DHT22;7044;53.286;8.534;2023-05-19T06:26:17;8.20;99.90
13944;DHT22;7044;53.286;8.534;2023-05-19T06:28:44;8.30;99.90
13944;DHT22;7044;53.286;8.534;2023-05-19T06:31:11;8.40;99.90
13944;DHT22;7044;53.286;8.534;2023-05-19T06:33:38;8.50;99.90
13944;DHT22;7044;53.286;8.534;2023-05-19T06:36:06;8.70;99.90
13944;DHT22;7044;53.286;8.534;2023-05-19T06:38:34;8.80;99.90
13944;DHT22;7044;53.286;8.534;2023-05-19T06:41:01;8.90;99.90
13944;DHT22;7044;53.286;8.534;2023-05-19T06:43:28;8.90;99.90
13944;DHT22;7044;53.286;8.534;2023-05-19T06:45:54;9.00;99.90
13944;DHT22;7044;53.286;8.534;2023-05-19T06:48:21;9.10;99.90
13944;DHT22;7044;53.286;8.534;2023-05-19T06:50:48;9.20;99.90
13944;DHT22;7044;53.286;8.534;2023-05-19T06:53:18;9.20;99.90
13944;DHT22;7044;53.286;8.534;2023-05-19T06:55:45;9.30;99.90
13944;DHT22;7044;53.286;8.534;2023-05-19T06:58:14;9.40;99.90
13944;DHT22;7044;53.286;8.534;2023-05-19T07:00:41;9.50;99.90
13944;DHT22;7044;53.286;8.534;2023-05-19T07:03:08;9.60;99.90
13944;DHT22;7044;53.286;8.534;2023-05-19T07:05:35;9.60;99.90
13944;DHT22;7044;53.286;8.534;2023-05-19T07:08:02;9.70;99.90
13944;DHT22;7044;53.286;8.534;2023-05-19T07:10:31;9.80;99.90
13944;DHT22;7044;53.286;8.534;2023-05-19T07:12:58;9.90;99.90
13944;DHT22;7044;53.286;8.534;2023-05-19T07:15:24;10.00;99.90
13944;DHT22;7044;53.286;8.534;2023-05-19T07:17:51;10.00;99.90
13944;DHT22;7044;53.286;8.534;2023-05-19T07:20:18;10.20;99.90
13944;DHT22;7044;53.286;8.534;2023-05-19T07:22:45;10.20;99.90
13944;DHT22;7044;53.286;8.534;2023-05-19T07:25:12;10.30;99.90
13944;DHT22;7044;53.286;8.534;2023-05-19T07:27:40;10.40;99.90
13944;DHT22;7044;53.286;8.534;2023-05-19T07:30:07;10.50;99.90
13944;DHT22;7044;53.286;8.534;2023-05-19T07:32:34;10.60;99.90
13944;DHT22;7044;53.286;8.534;2023-05-19T07:35:01;10.70;99.90
13944;DHT22;7044;53.286;8.534;2023-05-19T07:37:28;10.70;99.90
13944;DHT22;7044;53.286;8.534;2023-05-19T07:39:55;10.80;99.90
13944;DHT22;7044;53.286;8.534;2023-05-19T07:42:22;10.90;99.90
13944;DHT22;7044;53.286;8.534;2023-05-19T07:44:50;11.00;99.90
13944;DHT22;7044;53.286;8.534;2023-05-19T07:47:17;11.00;99.90
13944;DHT22;7044;53.286;8.534;2023-05-19T07:49:43;11.10;99.90
13944;DHT22;7044;53.286;8.534;2023-05-19T07:52:10;11.20;99.90
13944;DHT22;7044;53.286;8.534;2023-05-19T07:54:37;11.40;99.90
13944;DHT22;7044;53.286;8.534;2023-05-19T07:57:04;11.40;99.90
13944;DHT22;7044;53.286;8.534;2023-05-19T07:59:31;11.50;99.90
13944;DHT22;7044;53.286;8.534;2023-05-19T08:01:59;11.60;99.90
13944;DHT22;7044;53.286;8.534;2023-05-19T08:04:26;11.70;99.90
13944;DHT22;7044;53.286;8.534;2023-05-19T08:06:53;11.70;99.90
13944;DHT22;7044;53.286;8.534;2023-05-19T08:09:20;11.70;99.90
13944;DHT22;7044;53.286;8.534;2023-05-19T08:11:46;11.80;99.90
13944;DHT22;7044;53.286;8.534;2023-05-19T08:14:14;12.00;99.90
13944;DHT22;7044;53.286;8.534;2023-05-19T08:16:41;11.90;99.90
13944;DHT22;7044;53.286;8.534;2023-05-19T08:19:11;12.00;99.90
13944;DHT22;7044;53.286;8.534;2023-05-19T08:21:38;12.00;99.90
13944;DHT22;7044;53.286;8.534;2023-05-19T08:24:06;12.10;99.90
13944;DHT22;7044;53.286;8.534;2023-05-19T08:26:33;12.20;99.90
13944;DHT22;7044;53.286;8.534;2023-05-19T08:29:00;12.30;99.90
13944;DHT22;7044;53.286;8.534;2023-05-19T08:31:27;12.40;99.90
13944;DHT22;7044;53.286;8.534;2023-05-19T08:33:54;12.60;99.90
13944;DHT22;7044;53.286;8.534;2023-05-19T08:36:22;12.30;99.90
13944;DHT22;7044;53.286;8.534;2023-05-19T08:38:49;12.60;99.90
13944;DHT22;7044;53.286;8.534;2023-05-19T08:41:16;12.60;99.90
13944;DHT22;7044;53.286;8.534;2023-05-19T08:43:43;12.70;99.90
13944;DHT22;7044;53.286;8.534;2023-05-19T08:46:12;12.70;99.90
13944;DHT22;7044;53.286;8.534;2023-05-19T08:48:42;12.90;99.90
13944;DHT22;7044;53.286;8.534;2023-05-19T08:51:16;12.80;99.90
13944;DHT22;7044;53.286;8.534;2023-05-19T08:53:48;12.90;99.90
13944;DHT22;7044;53.286;8.534;2023-05-19T08:56:20;13.10;99.90
13944;DHT22;7044;53.286;8.534;2023-05-19T08:58:48;13.10;99.90
13944;DHT22;7044;53.286;8.534;2023-05-19T09:01:16;13.20;99.90
13944;DHT22;7044;53.286;8.534;2023-05-19T09:03:43;13.20;99.90
13944;DHT22;7044;53.286;8.534;2023-05-19T09:06:11;13.30;99.90
13944;DHT22;7044;53.286;8.534;2023-05-19T09:08:39;13.30;99.90
13944;DHT22;7044;53.286;8.534;2023-05-19T09:11:08;13.40;99.90
13944;DHT22;7044;53.286;8.534;2023-05-19T09:13:35;13.50;99.90
13944;DHT22;7044;53.286;8.534;2023-05-19T09:16:02;13.60;99.90
13944;DHT22;7044;53.286;8.534;2023-05-19T09:18:29;13.70;99.90
13944;DHT22;7044;53.286;8.534;2023-05-19T09:20:57;13.80;99.90
13944;DHT22;7044;53.286;8.534;2023-05-19T09:23:26;13.80;99.90
13944;DHT22;7044;53.286;8.534;2023-05-19T09:25:54;13.80;99.90
13944;DHT22;7044;53.286;8.534;2023-05-19T09:28:26;13.90;99.90
13944;DHT22;7044;53.286;8.534;2023-05-19T09:30:58;13.90;99.90
13944;DHT22;7044;53.286;8.534;2023-05-19T09:33:26;14.00;99.90
13944;DHT22;7044;53.286;8.534;2023-05-19T09:35:53;14.10;99.90
13944;DHT22;7044;53.286;8.534;2023-05-19T09:38:21;14.20;99.90
13944;DHT22;7044;53.286;8.534;2023-05-19T09:40:49;14.30;99.90
13944;DHT22;7044;53.286;8.534;2023-05-19T09:43:16;14.30;99.90
13944;DHT22;7044;53.286;8.534;2023-05-19T09:45:44;14.40;99.90
13944;DHT22;7044;53.286;8.534;2023-05-19T09:48:10;14.50;99.90
13944;DHT22;7044;53.286;8.534;2023-05-19T09:50:38;14.60;99.90
13944;DHT22;7044;53.286;8.534;2023-05-19T09:53:04;14.80;99.90
13944;DHT22;7044;53.286;8.534;2023-05-19T09:55:32;14.80;99.90
13944;DHT22;7044;53.286;8.534;2023-05-19T09:57:59;14.80;99.90
13944;DHT22;7044;53.286;8.534;2023-05-19T10:00:30;14.80;99.90
13944;DHT22;7044;53.286;8.534;2023-05-19T10:03:00;14.90;99.90
13944;DHT22;7044;53.286;8.534;2023-05-19T10:05:29;14.90;99.90
13944;DHT22;7044;53.286;8.534;2023-05-19T10:07:56;15.00;99.90
13944;DHT22;7044;53.286;8.534;2023-05-19T10:10:24;15.00;99.90
13944;DHT22;7044;53.286;8.534;2023-05-19T10:12:53;14.90;99.90
13944;DHT22;7044;53.286;8.534;2023-05-19T10:15:20;15.10;99.90
13944;DHT22;7044;53.286;8.534;2023-05-19T10:17:49;15.30;99.90
13944;DHT22;7044;53.286;8.534;2023-05-19T10:20:17;15.30;99.90
13944;DHT22;7044;53.286;8.534;2023-05-19T10:22:45;15.40;99.90
13944;DHT22;7044;53.286;8.534;2023-05-19T10:25:13;15.40;99.90
13944;DHT22;7044;53.286;8.534;2023-05-19T10:27:50;15.60;99.90
13944;DHT22;7044;53.286;8.534;2023-05-19T10:30:21;15.50;99.90
13944;DHT22;7044;53.286;8.534;2023-05-19T10:32:51;15.40;99.90
13944;DHT22;7044;53.286;8.534;2023-05-19T10:35:45;15.40;99.90
13944;DHT22;7044;53.286;8.534;2023-05-19T10:38:26;15.40;99.90
13944;DHT22;7044;53.286;8.534;2023-05-19T10:41:01;15.40;99.90
13944;DHT22;7044;53.286;8.534;2023-05-19T10:43:40;15.30;99.90
13944;DHT22;7044;53.286;8.534;2023-05-19T10:46:11;15.50;99.90
13944;DHT22;7044;53.286;8.534;2023-05-19T10:48:43;15.70;99.90
13944;DHT22;7044;53.286;8.534;2023-05-19T10:51:12;15.80;99.90
13944;DHT22;7044;53.286;8.534;2023-05-19T10:53:40;15.80;99.90
13944;DHT22;7044;53.286;8.534;2023-05-19T10:56:11;15.70;99.90
13944;DHT22;7044;53.286;8.534;2023-05-19T10:58:53;15.70;99.90
13944;DHT22;7044;53.286;8.534;2023-05-19T11:01:20;15.80;99.90
13944;DHT22;7044;53.286;8.534;2023-05-19T11:03:50;15.50;99.90
13944;DHT22;7044;53.286;8.534;2023-05-19T11:06:23;15.50;99.90
13944;DHT22;7044;53.286;8.534;2023-05-19T11:08:55;15.50;99.90
13944;DHT22;7044;53.286;8.534;2023-05-19T11:11:22;15.50;99.90
13944;DHT22;7044;53.286;8.534;2023-05-19T11:13:51;15.50;99.90
13944;DHT22;7044;53.286;8.534;2023-05-19T11:16:25;15.50;99.90
13944;DHT22;7044;53.286;8.534;2023-05-19T11:18:53;15.70;99.90
13944;DHT22;7044;53.286;8.534;2023-05-19T11:21:21;15.80;99.90
13944;DHT22;7044;53.286;8.534;2023-05-19T11:23:50;15.90;99.90
13944;DHT22;7044;53.286;8.534;2023-05-19T11:26:39;16.00;99.90
13944;DHT22;7044;53.286;8.534;2023-05-19T11:29:07;15.80;99.90
13944;DHT22;7044;53.286;8.534;2023-05-19T11:31:34;15.80;99.90
13944;DHT22;7044;53.286;8.534;2023-05-19T11:34:02;15.90;99.90
13944;DHT22;7044;53.286;8.534;2023-05-19T11:36:32;15.90;99.90
13944;DHT22;7044;53.286;8.534;2023-05-19T11:39:00;16.00;99.90
13944;DHT22;7044;53.286;8.534;2023-05-19T11:41:28;16.10;99.90
13944;DHT22;7044;53.286;8.534;2023-05-19T11:43:55;16.10;99.90
13944;DHT22;7044;53.286;8.534;2023-05-19T11:46:22;16.00;99.90
13944;DHT22;7044;53.286;8.534;2023-05-19T11:48:49;16.10;99.90
13944;DHT22;7044;53.286;8.534;2023-05-19T11:51:16;16.30;99.90
13944;DHT22;7044;53.286;8.534;2023-05-19T11:53:44;16.30;99.90
13944;DHT22;7044;53.286;8.534;2023-05-19T11:56:14;16.50;99.90
13944;DHT22;7044;53.286;8.534;2023-05-19T11:58:40;16.50;99.90
13944;DHT22;7044;53.286;8.534;2023-05-19T12:01:07;16.50;99.90
13944;DHT22;7044;53.286;8.534;2023-05-19T12:03:34;16.50;99.90
13944;DHT22;7044;53.286;8.534;2023-05-19T12:06:02;16.60;99.90
13944;DHT22;7044;53.286;8.534;2023-05-19T12:08:30;16.60;99.90
13944;DHT22;7044;53.286;8.534;2023-05-19T12:10:58;16.60;99.90
13944;DHT22;7044;53.286;8.534;2023-05-19T12:13:25;16.50;99.90
13944;DHT22;7044;53.286;8.534;2023-05-19T12:15:52;16.50;99.90
13944;DHT22;7044;53.286;8.534;2023-05-19T12:18:20;16.50;99.90
13944;DHT22;7044;53.286;8.534;2023-05-19T12:20:47;16.40;99.90
13944;DHT22;7044;53.286;8.534;2023-05-19T12:23:14;16.40;99.90
13944;DHT22;7044;53.286;8.534;2023-05-19T12:25:41;16.40;99.90
13944;DHT22;7044;53.286;8.534;2023-05-19T12:28:09;16.40;99.90
13944;DHT22;7044;53.286;8.534;2023-05-19T12:30:36;16.40;99.90
13944;DHT22;7044;53.286;8.534;2023-05-19T12:33:03;16.60;99.90
13944;DHT22;7044;53.286;8.534;2023-05-19T12:35:30;16.70;99.90
13944;DHT22;7044;53.286;8.534;2023-05-19T12:38:01;16.90;99.90
13944;DHT22;7044;53.286;8.534;2023-05-19T12:40:29;17.00;99.90
13944;DHT22;7044;53.286;8.534;2023-05-19T12:42:56;17.20;99.90
13944;DHT22;7044;53.286;8.534;2023-05-19T12:45:25;17.10;99.90
13944;DHT22;7044;53.286;8.534;2023-05-19T12:47:53;17.00;99.90
13944;DHT22;7044;53.286;8.534;2023-05-19T12:50:19;16.80;99.90
13944;DHT22;7044;53.286;8.534;2023-05-19T12:52:48;16.70;99.90
13944;DHT22;7044;53.286;8.534;2023-05-19T12:55:16;16.60;99.90
13944;DHT22;7044;53.286;8.534;2023-05-19T12:57:51;16.50;99.90
13944;DHT22;7044;53.286;8.534;2023-05-19T13:00:20;16.40;99.90
13944;DHT22;7044;53.286;8.534;2023-05-19T13:02:59;16.40;99.90
13944;DHT22;7044;53.286;8.534;2023-05-19T13:05:26;16.40;99.90
13944;DHT22;7044;53.286;8.534;2023-05-19T13:07:54;16.60;99.90
13944;DHT22;7044;53.286;8.534;2023-05-19T13:10:22;16.80;99.90
13944;DHT22;7044;53.286;8.534;2023-05-19T13:12:50;17.00;99.90
13944;DHT22;7044;53.286;8.534;2023-05-19T13:15:17;17.10;99.90
13944;DHT22;7044;53.286;8.534;2023-05-19T13:17:44;17.10;99.90
13944;DHT22;7044;53.286;8.534;2023-05-19T13:20:13;17.00;99.90
13944;DHT22;7044;53.286;8.534;2023-05-19T13:22:40;17.00;99.90
13944;DHT22;7044;53.286;8.534;2023-05-19T13:25:08;17.00;99.90
13944;DHT22;7044;53.286;8.534;2023-05-19T13:27:35;17.00;99.90
13944;DHT22;7044;53.286;8.534;2023-05-19T13:30:03;16.90;99.90
13944;DHT22;7044;53.286;8.534;2023-05-19T13:32:30;16.80;99.90
13944;DHT22;7044;53.286;8.534;2023-05-19T13:34:57;16.70;99.90
13944;DHT22;7044;53.286;8.534;2023-05-19T13:37:25;16.60;99.90
13944;DHT22;7044;53.286;8.534;2023-05-19T13:39:52;16.60;99.90
13944;DHT22;7044;53.286;8.534;2023-05-19T13:42:19;16.70;99.90
13944;DHT22;7044;53.286;8.534;2023-05-19T13:44:46;16.70;99.90
13944;DHT22;7044;53.286;8.534;2023-05-19T13:47:13;16.60;99.90
13944;DHT22;7044;53.286;8.534;2023-05-19T13:49:40;16.60;99.90
13944;DHT22;7044;53.286;8.534;2023-05-19T13:52:07;16.70;99.90
13944;DHT22;7044;53.286;8.534;2023-05-19T13:54:35;16.90;99.90
13944;DHT22;7044;53.286;8.534;2023-05-19T13:57:02;17.00;99.90
13944;DHT22;7044;53.286;8.534;2023-05-19T13:59:30;17.00;99.90
13944;DHT22;7044;53.286;8.534;2023-05-19T14:01:57;17.10;99.90
13944;DHT22;7044;53.286;8.534;2023-05-19T14:04:24;17.10;99.90
13944;DHT22;7044;53.286;8.534;2023-05-19T14:06:51;17.10;99.90
13944;DHT22;7044;53.286;8.534;2023-05-19T14:09:18;17.10;99.90
13944;DHT22;7044;53.286;8.534;2023-05-19T14:11:46;17.20;99.90
13944;DHT22;7044;53.286;8.534;2023-05-19T14:14:13;17.20;99.90
13944;DHT22;7044;53.286;8.534;2023-05-19T14:16:40;17.10;99.90
13944;DHT22;7044;53.286;8.534;2023-05-19T14:19:07;17.10;99.90
13944;DHT22;7044;53.286;8.534;2023-05-19T14:21:33;17.10;99.90
13944;DHT22;7044;53.286;8.534;2023-05-19T14:24:00;17.20;99.90
13944;DHT22;7044;53.286;8.534;2023-05-19T14:26:27;17.30;99.90
13944;DHT22;7044;53.286;8.534;2023-05-19T14:28:55;17.20;99.90
13944;DHT22;7044;53.286;8.534;2023-05-19T14:31:22;17.40;99.90
13944;DHT22;7044;53.286;8.534;2023-05-19T14:33:50;17.50;99.90
13944;DHT22;7044;53.286;8.534;2023-05-19T14:36:17;17.40;99.90
13944;DHT22;7044;53.286;8.534;2023-05-19T14:38:44;17.40;99.90
13944;DHT22;7044;53.286;8.534;2023-05-19T14:41:11;17.30;99.90
13944;DHT22;7044;53.286;8.534;2023-05-19T14:43:38;17.30;99.90
13944;DHT22;7044;53.286;8.534;2023-05-19T14:46:07;17.20;99.90
13944;DHT22;7044;53.286;8.534;2023-05-19T14:48:34;17.10;99.90
13944;DHT22;7044;53.286;8.534;2023-05-19T14:51:01;17.00;99.90
13944;DHT22;7044;53.286;8.534;2023-05-19T14:53:28;16.90;99.90
13944;DHT22;7044;53.286;8.534;2023-05-19T14:55:54;16.80;99.90
13944;DHT22;7044;53.286;8.534;2023-05-19T14:58:21;16.80;99.90
13944;DHT22;7044;53.286;8.534;2023-05-19T15:00:48;16.90;99.90
13944;DHT22;7044;53.286;8.534;2023-05-19T15:03:16;17.00;99.90
13944;DHT22;7044;53.286;8.534;2023-05-19T15:05:43;17.20;99.90
13944;DHT22;7044;53.286;8.534;2023-05-19T15:08:10;17.30;99.90
13944;DHT22;7044;53.286;8.534;2023-05-19T15:10:37;17.40;99.90
13944;DHT22;7044;53.286;8.534;2023-05-19T15:13:03;17.30;99.90
13944;DHT22;7044;53.286;8.534;2023-05-19T15:15:30;17.20;99.90
13944;DHT22;7044;53.286;8.534;2023-05-19T15:17:57;17.20;99.90
13944;DHT22;7044;53.286;8.534;2023-05-19T15:20:25;17.30;99.90
13944;DHT22;7044;53.286;8.534;2023-05-19T15:22:52;17.30;99.90
13944;DHT22;7044;53.286;8.534;2023-05-19T15:25:19;17.30;99.90
13944;DHT22;7044;53.286;8.534;2023-05-19T15:27:46;17.30;99.90
13944;DHT22;7044;53.286;8.534;2023-05-19T15:30:12;17.30;99.90
13944;DHT22;7044;53.286;8.534;2023-05-19T15:32:39;17.20;99.90
13944;DHT22;7044;53.286;8.534;2023-05-19T15:35:07;17.20;99.90
13944;DHT22;7044;53.286;8.534;2023-05-19T15:37:35;17.40;99.90
13944;DHT22;7044;53.286;8.534;2023-05-19T15:40:02;17.40;99.90
13944;DHT22;7044;53.286;8.534;2023-05-19T15:42:29;17.50;99.90
13944;DHT22;7044;53.286;8.534;2023-05-19T15:44:56;17.70;99.90
13944;DHT22;7044;53.286;8.534;2023-05-19T15:47:23;17.60;99.90
13944;DHT22;7044;53.286;8.534;2023-05-19T15:49:50;17.80;99.90
13944;DHT22;7044;53.286;8.534;2023-05-19T15:52:17;17.70;99.90
13944;DHT22;7044;53.286;8.534;2023-05-19T15:54:45;17.50;99.90
13944;DHT22;7044;53.286;8.534;2023-05-19T15:57:14;17.50;99.90
13944;DHT22;7044;53.286;8.534;2023-05-19T15:59:40;17.30;99.90